Time;durP1;ratioP1;P1;durP2;ratioP2;P2;SDS_P1;SDS_P2;PMS_P1;PMS_P2;Temp;Humidity;BMP_temperature;BMP_pressure;BME280_temperature;BME280_humidity;BME280_pressure;Samples;Min_cycle;Max_cycle;Signal;HPM_P1;HPM_P2
2023/12/05 00:01:27;;;;;;;21.55;15.60;;;;;;;-2.03;100.00;97321.59;1225647;75;2918007;-63
2023/12/05 00:04:03;;;;;;;18.40;13.60;;;;;;;-1.77;100.00;97322.84;1224559;75;2924248;-67
2023/12/05 00:06:36;;;;;;;16.95;12.80;;;;;;;-1.87;100.00;97323.72;1225123;75;2916626;-65
2023/12/05 00:09:08;;;;;;;14.35;11.20;;;;;;;-1.75;100.00;97310.53;1225197;75;2912558;-64
2023/12/05 00:11:43;;;;;;;12.80;10.00;;;;;;;-1.72;100.00;97304.38;1224823;75;2917943;-64
2023/12/05 00:14:16;;;;;;;11.55;8.65;;;;;;;-1.67;100.00;97308.53;1224999;75;2922054;-66
2023/12/05 00:16:49;;;;;;;10.00;7.85;;;;;;;-1.66;100.00;97312.75;1225691;75;2919142;-64
2023/12/05 00:19:24;;;;;;;10.85;7.95;;;;;;;-1.88;100.00;97306.09;1225130;75;2917538;-66
2023/12/05 00:21:57;;;;;;;10.55;8.05;;;;;;;-1.76;100.00;97303.63;1225624;75;2917366;-63
2023/12/05 00:24:30;;;;;;;11.45;8.15;;;;;;;-1.81;100.00;97312.13;1225457;75;2915127;-62
2023/12/05 00:27:03;;;;;;;10.55;7.25;;;;;;;-1.67;100.00;97307.78;1224698;75;2921283;-68
2023/12/05 00:29:36;;;;;;;8.20;6.15;;;;;;;-1.62;100.00;97301.94;1225455;75;2926189;-66
2023/12/05 00:32:10;;;;;;;7.70;6.10;;;;;;;-1.62;100.00;97299.28;1225362;75;2919678;-64
2023/12/05 00:34:47;;;;;;;7.00;5.65;;;;;;;-1.64;100.00;97293.53;1224971;75;2918747;-65
2023/12/05 00:37:19;;;;;;;7.20;5.35;;;;;;;-1.72;100.00;97295.56;1225037;67;2911637;-65
2023/12/05 00:39:52;;;;;;;8.50;5.65;;;;;;;-1.64;100.00;97304.28;1224446;75;2928564;-65
2023/12/05 00:42:25;;;;;;;6.50;5.05;;;;;;;-1.65;100.00;97306.22;1225817;75;2918067;-65
2023/12/05 00:44:58;;;;;;;6.65;5.20;;;;;;;-1.72;100.00;97304.38;1225207;75;2919743;-66
2023/12/05 00:47:31;;;;;;;6.05;4.80;;;;;;;-1.73;100.00;97300.16;1225391;83;2924933;-66
2023/12/05 00:50:07;;;;;;;8.25;5.60;;;;;;;-1.72;100.00;97307.03;1225385;75;2924962;-65
2023/12/05 00:52:40;;;;;;;6.95;5.35;;;;;;;-1.74;100.00;97305.94;1225397;75;2924024;-63
2023/12/05 00:55:13;;;;;;;6.45;5.10;;;;;;;-1.82;100.00;97313.31;1224274;75;2917586;-65
2023/12/05 00:57:46;;;;;;;6.05;5.00;;;;;;;-1.82;100.00;97307.19;1225048;75;2947191;-67
2023/12/05 01:00:20;;;;;;;7.55;5.45;;;;;;;-1.85;100.00;97300.69;1225612;75;2914973;-66
2023/12/05 01:02:53;;;;;;;6.45;5.25;;;;;;;-1.93;100.00;97300.00;1224118;75;2916285;-66
2023/12/05 01:05:28;;;;;;;6.85;5.55;;;;;;;-1.95;100.00;97296.19;1224947;75;2917629;-66
2023/12/05 01:08:01;;;;;;;6.55;5.30;;;;;;;-1.97;100.00;97302.00;1224983;75;2912819;-64
2023/12/05 01:10:34;;;;;;;7.50;5.40;;;;;;;-2.08;100.00;97295.22;1224819;75;2917798;-64
2023/12/05 01:13:07;;;;;;;6.60;5.20;;;;;;;-2.11;100.00;97294.09;1224952;75;2917691;-62
2023/12/05 01:15:40;;;;;;;7.30;5.55;;;;;;;-2.17;100.00;97287.63;1224942;75;2921057;-68
2023/12/05 01:18:14;;;;;;;7.55;5.60;;;;;;;-2.21;100.00;97287.69;1224697;75;2915483;-64
2023/12/05 01:20:49;;;;;;;8.00;5.95;;;;;;;-2.41;100.00;97294.78;1224865;75;2919818;-62
2023/12/05 01:23:22;;;;;;;7.40;5.50;;;;;;;-2.26;100.00;97290.03;1224890;75;2923140;-65
2023/12/05 01:25:55;;;;;;;7.45;6.20;;;;;;;-2.23;100.00;97287.31;1224863;75;2932125;-64
2023/12/05 01:28:28;;;;;;;7.20;5.55;;;;;;;-2.24;100.00;97293.81;1225415;75;2911434;-64
2023/12/05 01:31:00;;;;;;;7.30;6.15;;;;;;;-2.45;100.00;97286.03;1225498;75;2921439;-65
2023/12/05 01:33:33;;;;;;;8.10;6.20;;;;;;;-2.36;100.00;97286.28;1225566;67;2915663;-64
2023/12/05 01:36:13;;;;;;;6.75;5.20;;;;;;;-2.30;100.00;97284.72;1223949;75;2921037;-65
2023/12/05 01:38:46;;;;;;;8.00;6.40;;;;;;;-2.43;100.00;97284.47;1225411;75;2918168;-65
2023/12/05 01:41:19;;;;;;;8.60;6.65;;;;;;;-2.53;100.00;97276.53;1225111;75;2913233;-67
2023/12/05 01:43:52;;;;;;;9.35;7.40;;;;;;;-2.57;100.00;97277.31;1210566;75;4063284;-65
2023/12/05 01:46:25;;;;;;;14.95;11.45;;;;;;;-2.67;100.00;97272.03;1225685;75;2918846;-64
2023/12/05 01:48:58;;;;;;;12.90;9.85;;;;;;;-2.44;100.00;97269.53;1224580;75;2915401;-67
2023/12/05 01:51:34;;;;;;;10.40;8.30;;;;;;;-2.45;100.00;97272.63;1225001;75;2913216;-64
2023/12/05 01:54:08;;;;;;;11.80;9.05;;;;;;;-2.71;100.00;97268.66;1225091;75;2923416;-67
2023/12/05 01:56:41;;;;;;;12.25;9.50;;;;;;;-2.56;100.00;97270.03;1224794;75;2925809;-63
2023/12/05 01:59:14;;;;;;;12.85;8.95;;;;;;;-2.55;100.00;97276.91;1224789;75;2919315;-66
2023/12/05 02:01:47;;;;;;;12.60;9.15;;;;;;;-2.67;100.00;97272.81;1224684;75;2913168;-65
2023/12/05 02:04:20;;;;;;;11.15;8.85;;;;;;;-2.72;100.00;97267.88;1225056;75;2919141;-63
2023/12/05 02:06:56;;;;;;;10.30;8.40;;;;;;;-2.62;100.00;97261.69;1224842;75;2917541;-63
2023/12/05 02:09:29;;;;;;;9.80;7.70;;;;;;;-2.53;100.00;97255.06;1224298;75;2920940;-62
2023/12/05 02:12:02;;;;;;;10.35;7.00;;;;;;;-2.54;100.00;97250.88;1223959;75;2932956;-67
2023/12/05 02:14:35;;;;;;;8.60;6.65;;;;;;;-2.50;100.00;97256.94;1224650;75;2917275;-65
2023/12/05 02:17:17;;;;;;;8.80;6.65;;;;;;;-2.53;100.00;97257.75;1198322;75;5036351;-65
2023/12/05 02:20:00;;;;;;;7.40;5.90;;;;;;;-2.52;100.00;97246.66;1225130;75;2918612;-66
2023/12/05 02:23:10;;;;;;;7.95;6.15;;;;;;;-2.47;100.00;97250.81;1225502;75;2911697;-64
2023/12/05 02:25:57;;;;;;;7.65;5.60;;;;;;;-2.50;100.00;97259.63;1224958;75;2917850;-66
2023/12/05 02:28:32;;;;;;;9.05;6.00;;;;;;;-2.61;100.00;97259.75;1224805;75;2915063;-66
2023/12/05 02:31:05;;;;;;;7.80;5.80;;;;;;;-2.48;100.00;97255.41;1225352;75;2916526;-64
2023/12/05 02:33:38;;;;;;;7.40;6.00;;;;;;;-2.52;100.00;97245.91;1226333;75;2928359;-63
2023/12/05 02:36:23;;;;;;;8.50;6.65;;;;;;;-2.60;100.00;97240.59;1224724;75;2914448;-63
2023/12/05 02:39:09;;;;;;;6.60;5.70;;;;;;;-2.69;100.00;97228.84;1224973;75;2923600;-64
2023/12/05 02:41:48;;;;;;;14.90;10.40;;;;;;;-2.93;100.00;97230.59;1224410;75;2916027;-66
2023/12/05 02:44:27;;;;;;;17.95;12.55;;;;;;;-2.94;100.00;97223.69;1224950;75;2920915;-64
2023/12/05 02:47:01;;;;;;;16.15;11.70;;;;;;;-2.67;100.00;97234.53;1224777;75;2922662;-64
2023/12/05 02:49:34;;;;;;;15.90;11.95;;;;;;;-2.91;100.00;97215.63;1224652;75;2918031;-65
2023/12/05 02:52:08;;;;;;;16.55;12.75;;;;;;;-2.87;100.00;97215.59;1225576;75;2916692;-65
2023/12/05 02:54:41;;;;;;;15.90;12.50;;;;;;;-2.82;100.00;97220.53;1224755;75;2920054;-66
2023/12/05 02:57:14;;;;;;;13.80;11.05;;;;;;;-2.71;100.00;97223.13;1224564;75;2914164;-64
2023/12/05 02:59:50;;;;;;;11.90;9.70;;;;;;;-2.50;100.00;97214.06;1224667;75;2921695;-64
2023/12/05 03:02:22;;;;;;;10.30;8.30;;;;;;;-2.53;100.00;97210.28;1224472;75;2921876;-65
2023/12/05 03:04:55;;;;;;;10.95;8.70;;;;;;;-2.79;100.00;97217.03;1224697;75;2920668;-64
2023/12/05 03:07:28;;;;;;;14.60;11.65;;;;;;;-2.94;100.00;97229.81;1225918;75;2927844;-66
2023/12/05 03:10:01;;;;;;;15.50;12.00;;;;;;;-2.82;100.00;97231.22;1225307;75;2914570;-65
2023/12/05 03:12:34;;;;;;;14.85;11.15;;;;;;;-2.66;100.00;97231.47;1224647;75;2923177;-65
2023/12/05 03:15:12;;;;;;;13.30;9.65;;;;;;;-2.76;100.00;97218.94;1225822;75;2922378;-64
2023/12/05 03:17:44;;;;;;;13.65;10.50;;;;;;;-2.73;100.00;97233.47;1224490;75;2920365;-64
2023/12/05 03:20:18;;;;;;;11.65;9.15;;;;;;;-2.59;100.00;97223.34;1224867;75;2915369;-66
2023/12/05 03:22:50;;;;;;;10.70;8.10;;;;;;;-2.55;100.00;97223.31;1225009;75;2912934;-67
2023/12/05 03:25:23;;;;;;;12.70;9.35;;;;;;;-2.78;100.00;97222.00;1224393;75;2926219;-66
2023/12/05 03:27:56;;;;;;;12.15;8.45;;;;;;;-2.51;100.00;97221.38;1225098;75;2934558;-63
2023/12/05 03:30:32;;;;;;;9.30;7.35;;;;;;;-2.49;100.00;97212.94;1224803;75;2926118;-63
2023/12/05 03:33:04;;;;;;;9.00;6.60;;;;;;;-2.49;100.00;97207.56;1223976;75;2926155;-64
2023/12/05 03:35:37;;;;;;;9.70;6.95;;;;;;;-2.51;100.00;97207.22;1225928;75;2922037;-64
2023/12/05 03:38:10;;;;;;;10.95;7.95;;;;;;;-2.67;100.00;97219.25;1225232;75;2915407;-64
2023/12/05 03:40:43;;;;;;;11.50;8.90;;;;;;;-2.60;100.00;97211.13;1224270;75;2915581;-64
2023/12/05 03:43:16;;;;;;;9.30;7.95;;;;;;;-2.49;100.00;97212.94;1224806;75;2914795;-67
2023/12/05 03:45:51;;;;;;;10.50;7.75;;;;;;;-2.55;100.00;97212.59;1226368;75;2913411;-64
2023/12/05 03:48:24;;;;;;;13.95;10.45;;;;;;;-2.91;100.00;97222.91;1224611;75;2916092;-65
2023/12/05 03:50:57;;;;;;;14.65;12.60;;;;;;;-3.03;100.00;97214.22;1224913;75;2921053;-66
2023/12/05 03:53:29;;;;;;;15.40;12.85;;;;;;;-2.98;100.00;97210.34;1224855;75;2917061;-67
2023/12/05 03:56:03;;;;;;;19.95;14.75;;;;;;;-2.89;100.00;97209.88;1224478;75;2922072;-66
2023/12/05 03:58:36;;;;;;;16.70;12.85;;;;;;;-2.73;100.00;97207.44;1224638;75;2925993;-66
2023/12/05 04:01:12;;;;;;;16.90;12.85;;;;;;;-2.59;100.00;97206.53;1224652;75;2926830;-67
2023/12/05 04:03:44;;;;;;;17.50;13.90;;;;;;;-2.79;100.00;97209.78;1224508;75;2917947;-65
2023/12/05 04:06:23;;;;;;;16.10;12.00;;;;;;;-2.86;100.00;97207.19;1224740;75;2917261;-65
2023/12/05 04:08:56;;;;;;;15.25;11.60;;;;;;;-2.55;100.00;97209.16;1224304;75;2918747;-64
2023/12/05 04:11:33;;;;;;;13.80;10.50;;;;;;;-2.39;100.00;97207.44;1224889;75;2923527;-66
2023/12/05 04:14:06;;;;;;;11.40;9.60;;;;;;;-2.60;100.00;97211.13;1223833;75;2924745;-67
2023/12/05 04:16:42;;;;;;;14.70;10.45;;;;;;;-2.49;100.00;97202.22;1224465;75;2940629;-64
2023/12/05 04:19:14;;;;;;;10.85;9.00;;;;;;;-2.40;100.00;97203.25;1224228;75;2923457;-66
2023/12/05 04:21:47;;;;;;;12.65;9.45;;;;;;;-2.54;100.00;97195.38;1223834;75;2905443;-66
2023/12/05 04:24:20;;;;;;;12.80;9.75;;;;;;;-2.49;100.00;97204.91;1224631;75;2923237;-65
2023/12/05 04:26:53;;;;;;;12.50;9.30;;;;;;;-2.57;100.00;97199.59;1223321;75;2932965;-66
2023/12/05 04:29:26;;;;;;;13.00;9.75;;;;;;;-2.59;100.00;97199.25;1224133;75;2924676;-65
2023/12/05 04:32:02;;;;;;;11.90;9.60;;;;;;;-2.69;100.00;97200.13;1224238;75;2919683;-66
2023/12/05 04:34:35;;;;;;;13.50;10.65;;;;;;;-2.57;100.00;97196.19;1224047;75;2928726;-66
2023/12/05 04:37:08;;;;;;;14.50;10.85;;;;;;;-2.75;100.00;97201.69;1224095;75;2925615;-63
2023/12/05 04:39:41;;;;;;;17.35;12.90;;;;;;;-2.82;100.00;97207.13;1223306;75;2930553;-66
2023/12/05 04:42:13;;;;;;;13.55;11.05;;;;;;;-2.71;100.00;97210.47;1223166;75;2924170;-63
2023/12/05 04:44:46;;;;;;;12.60;9.90;;;;;;;-2.52;100.00;97213.75;1224128;75;2923248;-65
2023/12/05 04:47:22;;;;;;;11.65;8.95;;;;;;;-2.47;100.00;97213.28;1224604;75;2918658;-67
2023/12/05 04:49:55;;;;;;;12.20;9.55;;;;;;;-2.68;100.00;97209.66;1224215;75;2921467;-64
2023/12/05 04:52:27;;;;;;;13.80;9.90;;;;;;;-2.69;100.00;97207.41;1224504;75;2920489;-65
2023/12/05 04:55:00;;;;;;;14.80;10.80;;;;;;;-2.79;100.00;97211.69;1222962;75;2967530;-68
2023/12/05 04:57:33;;;;;;;13.75;11.05;;;;;;;-2.75;100.00;97207.06;1222258;75;3004212;-65
2023/12/05 05:00:08;;;;;;;12.25;10.15;;;;;;;-2.59;100.00;97199.25;1224343;75;2920724;-68
2023/12/05 05:02:44;;;;;;;9.95;8.50;;;;;;;-2.78;100.00;97207.84;1188748;75;5809302;-64
2023/12/05 05:05:17;;;;;;;15.80;12.00;;;;;;;-2.92;100.00;97210.66;1223923;75;2938154;-64
2023/12/05 05:07:49;;;;;;;15.85;12.45;;;;;;;-3.07;100.00;97218.81;1223478;75;2925721;-65
2023/12/05 05:10:23;;;;;;;19.80;14.25;;;;;;;-3.29;100.00;97220.16;1223689;75;2920758;-65
2023/12/05 05:12:56;;;;;;;21.20;16.10;;;;;;;-3.18;100.00;97215.47;1223976;75;2922998;-66
2023/12/05 05:15:29;;;;;;;23.00;16.30;;;;;;;-3.13;100.00;97215.03;1224863;75;2916836;-66
2023/12/05 05:18:04;;;;;;;19.55;14.50;;;;;;;-2.94;100.00;97219.09;1224453;75;2923942;-64
2023/12/05 05:20:37;;;;;;;18.55;12.80;;;;;;;-2.93;100.00;97219.88;1223683;75;2920375;-66
2023/12/05 05:23:10;;;;;;;17.05;13.20;;;;;;;-3.17;100.00;97219.69;1224099;75;2923822;-66
2023/12/05 05:25:43;;;;;;;18.40;13.60;;;;;;;-3.07;100.00;97216.16;1223945;75;2935693;-64
2023/12/05 05:28:15;;;;;;;18.85;14.90;;;;;;;-3.03;100.00;97221.47;1224371;75;2917033;-68
2023/12/05 05:30:48;;;;;;;16.95;12.95;;;;;;;-3.19;100.00;97224.66;1223928;75;2929718;-65
2023/12/05 05:33:24;;;;;;;15.35;11.60;;;;;;;-3.13;100.00;97225.75;1224188;75;2922869;-65
2023/12/05 05:35:57;;;;;;;24.50;17.40;;;;;;;-3.12;100.00;97231.88;1223580;75;2928797;-64
2023/12/05 05:38:29;;;;;;;19.15;13.70;;;;;;;-3.05;100.00;97237.19;1224012;75;2929073;-62
2023/12/05 05:41:09;;;;;;;19.30;13.65;;;;;;;-3.10;100.00;97235.69;1223281;75;2935688;-65
2023/12/05 05:43:41;;;;;;;22.85;16.35;;;;;;;-3.32;100.00;97237.78;1223721;75;2919667;-63
2023/12/05 05:46:15;;;;;;;21.55;15.40;;;;;;;-3.19;100.00;97234.63;1222946;83;2926343;-66
2023/12/05 05:48:50;;;;;;;20.85;15.05;;;;;;;-3.36;100.00;97239.69;1224267;75;2920588;-65
2023/12/05 05:51:23;;;;;;;21.35;14.95;;;;;;;-3.39;100.00;97242.38;1224037;75;2894482;-65
2023/12/05 05:53:57;;;;;;;17.20;12.70;;;;;;;-3.47;100.00;97250.47;1223345;75;2923577;-69
2023/12/05 05:56:30;;;;;;;16.70;12.00;;;;;;;-3.52;100.00;97240.19;1222901;75;2929864;-68
2023/12/05 05:59:03;;;;;;;14.50;10.65;;;;;;;-3.63;100.00;97258.22;1223370;75;2942831;-63
2023/12/05 06:01:35;;;;;;;15.85;11.75;;;;;;;-3.61;100.00;97265.84;1223506;75;2929417;-65
2023/12/05 06:04:11;;;;;;;12.65;10.35;;;;;;;-3.50;100.00;97255.84;1223285;75;2930066;-61
2023/12/05 06:06:44;;;;;;;11.40;8.35;;;;;;;-3.56;100.00;97250.16;1223373;75;2931446;-64
2023/12/05 06:09:17;;;;;;;10.15;7.55;;;;;;;-3.59;100.00;97244.81;1223415;75;2927077;-65
2023/12/05 06:11:50;;;;;;;10.25;8.20;;;;;;;-3.59;100.00;97244.81;1224573;75;2917553;-64
2023/12/05 06:14:22;;;;;;;9.65;8.35;;;;;;;-3.66;100.00;97241.00;1222723;75;2924005;-68
2023/12/05 06:16:55;;;;;;;9.40;7.85;;;;;;;-3.65;100.00;97241.81;1223166;75;2928167;-67
2023/12/05 06:19:31;;;;;;;8.75;7.25;;;;;;;-3.67;100.00;97236.84;1223746;75;2930128;-65
2023/12/05 06:22:03;;;;;;;9.35;7.50;;;;;;;-3.68;100.00;97232.66;1223300;75;2919901;-67
2023/12/05 06:24:37;;;;;;;10.90;9.60;;;;;;;-4.04;100.00;97232.06;1223178;75;2929139;-64
2023/12/05 06:27:09;;;;;;;14.35;11.75;;;;;;;-4.15;100.00;97232.09;1223163;75;2920915;-64
2023/12/05 06:29:42;;;;;;;13.15;10.30;;;;;;;-4.00;100.00;97232.03;1222175;75;2930927;-63
2023/12/05 06:32:15;;;;;;;13.95;10.60;;;;;;;-4.08;100.00;97232.06;1223336;75;2935647;-65
2023/12/05 06:34:51;;;;;;;14.30;11.90;;;;;;;-4.22;100.00;97242.06;1223204;75;2951381;-65
2023/12/05 06:37:23;;;;;;;14.35;11.55;;;;;;;-3.98;100.00;97235.84;1223100;75;2933077;-63
2023/12/05 06:39:56;;;;;;;14.20;11.35;;;;;;;-3.93;100.00;97232.00;1205241;75;4318456;-65
2023/12/05 06:42:29;;;;;;;23.95;18.15;;;;;;;-4.30;100.00;97234.06;1223005;75;2921400;-62
2023/12/05 06:45:02;;;;;;;23.95;17.50;;;;;;;-3.99;100.00;97238.91;1223790;75;2924696;-67
2023/12/05 06:47:35;;;;;;;19.40;16.05;;;;;;;-4.04;100.00;97245.44;1223198;75;2932193;-68
2023/12/05 06:50:13;;;;;;;19.10;14.70;;;;;;;-3.96;100.00;97246.16;1223537;75;2920687;-66
2023/12/05 06:52:46;;;;;;;15.80;13.50;;;;;;;-3.87;100.00;97241.91;1223659;75;2934647;-64
2023/12/05 06:55:19;;;;;;;18.30;13.95;;;;;;;-4.02;100.00;97253.06;1223485;75;2928678;-68
2023/12/05 06:57:52;;;;;;;22.75;16.70;;;;;;;-3.87;100.00;97257.19;1223733;75;2937174;-66
2023/12/05 07:00:25;;;;;;;18.05;14.80;;;;;;;-3.81;100.00;97236.91;1223575;75;2925916;-67
2023/12/05 07:02:58;;;;;;;18.60;14.70;;;;;;;-3.96;100.00;97262.19;1223986;75;2921636;-64
2023/12/05 07:05:33;;;;;;;21.45;16.90;;;;;;;-4.00;100.00;97256.09;1224411;75;2938791;-67
2023/12/05 07:08:07;;;;;;;21.45;15.80;;;;;;;-3.84;100.00;97263.69;1223257;75;2926352;-65
2023/12/05 07:10:39;;;;;;;19.75;15.15;;;;;;;-3.55;100.00;97251.66;1215807;75;2926841;-69
2023/12/05 07:13:13;;;;;;;17.25;13.35;;;;;;;-3.49;100.00;97250.13;1224029;75;2932073;-63
2023/12/05 07:15:46;;;;;;;18.50;13.50;;;;;;;-3.59;100.00;97250.16;1223758;75;2930500;-64
2023/12/05 07:18:19;;;;;;;15.30;12.20;;;;;;;-3.33;100.00;97256.88;1223413;75;2926505;-65
2023/12/05 07:20:55;;;;;;;15.00;11.75;;;;;;;-3.31;100.00;97266.03;1223552;75;2932835;-63
2023/12/05 07:23:27;;;;;;;12.20;10.00;;;;;;;-3.18;100.00;97252.19;1223804;75;2925549;-65
2023/12/05 07:26:00;;;;;;;11.25;9.75;;;;;;;-3.06;100.00;97244.44;1224298;75;2925352;-62
2023/12/05 07:28:33;;;;;;;11.90;9.15;;;;;;;-2.95;100.00;97244.38;1222886;75;2928865;-64
2023/12/05 07:31:07;;;;;;;11.50;8.95;;;;;;;-2.96;100.00;97250.09;1222731;75;2932888;-66
2023/12/05 07:33:40;;;;;;;14.35;11.25;;;;;;;-3.09;100.00;97257.88;1222871;75;2939508;-64
2023/12/05 07:36:17;;;;;;;23.20;17.90;;;;;;;-3.30;100.00;97248.81;1222720;75;2930778;-68
2023/12/05 07:38:50;;;;;;;21.45;16.55;;;;;;;-2.89;100.00;97244.69;1223239;75;2932031;-64
2023/12/05 07:41:23;;;;;;;21.90;16.70;;;;;;;-2.88;100.00;97243.53;1223331;75;2935655;-65
2023/12/05 07:43:56;;;;;;;18.05;14.25;;;;;;;-2.41;100.00;97249.97;1223727;75;2923832;-66
2023/12/05 07:46:29;;;;;;;15.75;12.30;;;;;;;-1.96;100.00;97252.53;1223027;75;2926880;-66
2023/12/05 07:49:02;;;;;;;16.15;12.70;;;;;;;-1.57;100.00;97243.22;1223683;75;2926481;-65
2023/12/05 07:51:37;;;;;;;17.10;12.70;;;;;;;-1.27;100.00;97243.56;1224062;75;2922974;-65
2023/12/05 07:54:10;;;;;;;21.35;15.10;;;;;;;-1.28;100.00;97248.16;1224271;75;2926512;-63
2023/12/05 07:56:43;;;;;;;18.80;14.55;;;;;;;-0.98;100.00;97254.66;1223511;75;2932265;-63
2023/12/05 07:59:16;;;;;;;16.45;13.45;;;;;;;-0.73;100.00;97254.97;1222580;75;2931597;-64
2023/12/05 08:01:49;;;;;;;14.90;12.20;;;;;;;-0.74;100.00;97245.41;1224196;75;2922131;-66
2023/12/05 08:04:21;;;;;;;19.20;14.20;;;;;;;-0.77;100.00;97240.88;1224276;75;2923418;-66
2023/12/05 08:06:57;;;;;;;16.50;12.85;;;;;;;-0.49;99.86;97236.91;1222872;75;2932791;-65
2023/12/05 08:09:30;;;;;;;14.95;11.40;;;;;;;-0.21;96.22;97240.25;1223094;75;2922924;-63
2023/12/05 08:12:02;;;;;;;16.50;12.85;;;;;;;-0.31;98.23;97241.97;1223712;75;2933305;-65
2023/12/05 08:14:35;;;;;;;24.50;18.00;;;;;;;-0.99;100.00;97258.47;1223682;75;2933378;-66
2023/12/05 08:17:08;;;;;;;30.40;22.15;;;;;;;-1.10;100.00;97264.03;1224559;75;2922541;-65
2023/12/05 08:19:41;;;;;;;31.30;22.30;;;;;;;-1.25;100.00;97263.50;1223954;75;2926286;-64
2023/12/05 08:22:17;;;;;;;28.35;20.80;;;;;;;-1.23;100.00;97274.56;1225144;75;2907933;-64
2023/12/05 08:24:50;;;;;;;22.75;16.75;;;;;;;-0.56;100.00;97277.34;1224138;75;2924329;-66
2023/12/05 08:27:23;;;;;;;21.05;15.45;;;;;;;-0.94;100.00;97272.22;1223808;75;2924567;-62
2023/12/05 08:29:55;;;;;;;22.50;16.50;;;;;;;-1.25;100.00;97271.56;1223415;75;2922865;-68
2023/12/05 08:32:28;;;;;;;24.15;17.50;;;;;;;-1.32;100.00;97287.75;1224016;75;2932383;-64
2023/12/05 08:35:01;;;;;;;24.30;18.00;;;;;;;-1.37;100.00;97275.56;1224182;75;2920386;-65
2023/12/05 08:37:36;;;;;;;22.05;15.10;;;;;;;-0.92;100.00;97283.31;1224260;75;2921046;-67
2023/12/05 08:40:11;;;;;;;22.85;18.10;;;;;;;-1.56;100.00;97284.25;1223173;75;2921872;-66
2023/12/05 08:42:45;;;;;;;22.55;17.90;;;;;;;-1.66;100.00;97277.88;1224061;75;2928595;-64
2023/12/05 08:45:18;;;;;;;19.95;16.25;;;;;;;-1.21;100.00;97272.25;1224800;75;2924163;-64
2023/12/05 08:47:53;;;;;;;19.25;14.10;;;;;;;-0.75;100.00;97253.88;1224119;75;2920542;-65
2023/12/05 08:50:26;;;;;;;25.15;18.40;;;;;;;-1.27;100.00;97251.63;1223339;75;2926690;-65
2023/12/05 08:53:02;;;;;;;24.30;16.95;;;;;;;-1.10;100.00;97253.28;1224178;75;2916145;-67
2023/12/05 08:55:35;;;;;;;19.20;14.40;;;;;;;-0.90;100.00;97264.84;1224604;75;2928099;-63
2023/12/05 08:58:09;;;;;;;18.00;14.05;;;;;;;-0.97;100.00;97270.34;1224141;75;2918511;-64
2023/12/05 09:00:42;;;;;;;17.40;13.45;;;;;;;-0.93;100.00;97276.44;1224416;75;2919312;-66
2023/12/05 09:03:15;;;;;;;21.10;15.60;;;;;;;-1.30;100.00;97275.44;1223531;75;2949267;-65
2023/12/05 09:05:48;;;;;;;25.40;19.50;;;;;;;-1.74;100.00;97287.16;1224063;75;2928820;-65
2023/12/05 09:08:23;;;;;;;27.20;19.30;;;;;;;-1.66;100.00;97298.53;1223961;75;2928879;-65
2023/12/05 09:10:57;;;;;;;25.00;19.05;;;;;;;-1.44;100.00;97293.66;1223426;75;2953297;-66
2023/12/05 09:13:30;;;;;;;24.55;18.85;;;;;;;-1.40;100.00;97284.41;1223628;75;2933743;-67
2023/12/05 09:16:02;;;;;;;25.50;20.25;;;;;;;-1.54;100.00;97282.69;1223965;75;2921806;-64
2023/12/05 09:18:35;;;;;;;28.10;21.00;;;;;;;-1.39;100.00;97277.88;1222724;75;2927964;-68
2023/12/05 09:21:09;;;;;;;32.50;22.65;;;;;;;-1.41;100.00;97290.19;1222190;75;2931377;-64
2023/12/05 09:23:45;;;;;;;29.15;21.55;;;;;;;-0.81;100.00;97275.09;1222684;75;2923521;-65
2023/12/05 09:26:18;;;;;;;28.40;20.20;;;;;;;-0.37;100.00;97265.13;1224421;75;2920150;-65
2023/12/05 09:28:51;;;;;;;24.50;20.00;;;;;;;-0.13;100.00;97267.75;1222850;75;2936967;-66
2023/12/05 09:31:24;;;;;;;29.65;25.00;;;;;;;-0.50;100.00;97272.28;1222993;75;2930819;-66
2023/12/05 09:33:58;;;;;;;30.55;24.05;;;;;;;-0.77;100.00;97275.81;1221932;75;2957735;-64
2023/12/05 09:36:33;;;;;;;27.55;20.65;;;;;;;-0.78;100.00;97270.81;1224072;75;2926607;-66
2023/12/05 09:39:08;;;;;;;24.70;19.30;;;;;;;-0.38;100.00;97262.84;1221054;75;2947075;-66
2023/12/05 09:41:51;;;;;;;22.30;16.40;;;;;;;0.13;100.00;97269.53;1222869;75;2934636;-66
2023/12/05 09:44:25;;;;;;;25.00;18.25;;;;;;;-0.65;100.00;97279.81;1224065;75;2925999;-66
2023/12/05 09:47:05;;;;;;;27.55;21.65;;;;;;;-0.58;100.00;97277.00;1224668;75;2926397;-64
2023/12/05 09:49:38;;;;;;;22.70;17.95;;;;;;;0.04;100.00;97269.34;1224135;75;2925581;-66
2023/12/05 09:52:14;;;;;;;22.40;17.25;;;;;;;-0.35;100.00;97262.03;1218387;75;2955297;-64
2023/12/05 09:54:50;;;;;;;27.50;19.20;;;;;;;-0.29;100.00;97257.66;1222033;75;2921472;-64
2023/12/05 09:57:23;;;;;;;26.25;19.25;;;;;;;-0.46;100.00;97252.22;1224495;75;2905531;-66
2023/12/05 09:59:56;;;;;;;27.35;19.60;;;;;;;-0.60;100.00;97260.53;1224079;75;2924407;-66
2023/12/05 10:02:31;;;;;;;24.35;17.95;;;;;;;-0.28;100.00;97256.50;1222672;75;2930743;-65
2023/12/05 10:05:06;;;;;;;28.70;20.35;;;;;;;-0.39;100.00;97259.38;1223624;75;2923954;-65
2023/12/05 10:07:39;;;;;;;26.75;19.45;;;;;;;-0.74;100.00;97250.78;1224353;75;2923597;-62
2023/12/05 10:10:15;;;;;;;23.90;18.55;;;;;;;-0.55;100.00;97243.94;1223524;75;2927851;-63
2023/12/05 10:12:50;;;;;;;26.65;19.20;;;;;;;-0.45;100.00;97259.09;1223842;75;2922108;-66
2023/12/05 10:15:23;;;;;;;31.00;21.45;;;;;;;-0.88;100.00;97246.41;1222703;75;2927032;-66
2023/12/05 10:17:56;;;;;;;27.10;20.45;;;;;;;-0.34;100.00;97242.00;1224586;75;2846690;-67
2023/12/05 10:20:29;;;;;;;30.15;21.80;;;;;;;-0.55;100.00;97246.63;1223469;75;2926005;-68
2023/12/05 10:23:02;;;;;;;30.60;21.55;;;;;;;-0.47;100.00;97233.81;1224132;75;2926305;-65
2023/12/05 10:25:38;;;;;;;24.60;19.40;;;;;;;-0.40;100.00;97235.59;1223446;75;2933043;-62
2023/12/05 10:28:12;;;;;;;25.95;18.55;;;;;;;-0.29;100.00;97236.16;1223087;75;2923745;-68
2023/12/05 10:30:45;;;;;;;21.80;15.60;;;;;;;0.42;100.00;97226.63;1223353;75;2939470;-64
2023/12/05 10:33:20;;;;;;;18.20;13.60;;;;;;;0.91;100.00;97228.59;1224080;75;2924322;-67
2023/12/05 10:35:55;;;;;;;17.50;13.25;;;;;;;0.81;99.81;97224.25;1223256;75;2933355;-64
2023/12/05 10:38:32;;;;;;;20.15;14.40;;;;;;;0.93;96.98;97228.94;1222571;75;2930955;-66
2023/12/05 10:41:07;;;;;;;25.25;19.20;;;;;;;0.61;99.47;97230.44;1222731;75;2915855;-66
2023/12/05 10:43:41;;;;;;;21.05;15.65;;;;;;;1.17;95.82;97242.25;1225340;75;2920688;-65
2023/12/05 10:46:15;;;;;;;27.55;20.65;;;;;;;0.27;100.00;97238.91;1224207;75;2921576;-66
2023/12/05 10:48:48;;;;;;;29.20;20.15;;;;;;;-0.07;100.00;97241.91;1224002;75;2915701;-64
2023/12/05 10:51:21;;;;;;;33.00;20.65;;;;;;;0.42;100.00;97245.47;1224748;75;2933056;-64
2023/12/05 10:53:53;;;;;;;30.80;22.10;;;;;;;-0.16;100.00;97239.75;1224419;75;2919608;-65
2023/12/05 10:56:29;;;;;;;28.85;20.60;;;;;;;0.22;100.00;97247.47;1224535;75;2923747;-65
2023/12/05 10:59:03;;;;;;;27.55;18.45;;;;;;;0.25;100.00;97235.09;1224642;75;2926778;-65
2023/12/05 11:01:39;;;;;;;23.50;18.30;;;;;;;1.03;100.00;97227.97;1224018;75;2923861;-66
2023/12/05 11:04:12;;;;;;;24.30;17.55;;;;;;;1.00;98.80;97233.41;1224119;75;2928865;-64
2023/12/05 11:06:45;;;;;;;25.10;17.55;;;;;;;1.40;96.47;97228.56;1224545;75;2919813;-65
2023/12/05 11:09:18;;;;;;;23.60;16.65;;;;;;;1.48;94.87;97239.94;1224326;75;2921969;-66
2023/12/05 11:11:57;;;;;;;24.55;17.60;;;;;;;1.87;90.41;97230.03;1224591;75;2921418;-67
2023/12/05 11:14:31;;;;;;;19.85;15.25;;;;;;;2.59;85.80;97226.03;1225162;75;2922971;-64
2023/12/05 11:17:08;;;;;;;24.55;18.20;;;;;;;2.98;82.60;97224.06;1224424;75;2932960;-70
2023/12/05 11:20:08;;;;;;;26.60;19.65;;;;;;;3.76;78.51;97220.69;1224577;75;2917682;-66
2023/12/05 11:22:54;;;;;;;26.20;19.70;;;;;;;4.10;77.21;97215.66;1224578;75;2926660;-66
2023/12/05 11:25:49;;;;;;;21.75;16.80;;;;;;;5.41;69.94;97217.13;1224777;75;2949303;-65
2023/12/05 11:28:45;;;;;;;21.95;17.05;;;;;;;4.76;73.61;97224.38;1223651;75;2926948;-65
2023/12/05 11:31:32;;;;;;;23.00;16.70;;;;;;;4.68;72.90;97220.44;1224894;75;2920670;-65